Time;durP1;ratioP1;P1;durP2;ratioP2;P2;SDS_P1;SDS_P2;PMS_P1;PMS_P2;Temp;Humidity;BMP_temperature;BMP_pressure;BME280_temperature;BME280_humidity;BME280_pressure;Samples;Min_cycle;Max_cycle;Signal;HPM_P1;HPM_P2
2023/03/30 00:01:40;;;;;;;7.23;2.97;;;16.50;99.90;;;;;;5999791;23;20512;-70
2023/03/30 00:04:11;;;;;;;6.47;2.50;;;16.50;99.90;;;;;;6002951;23;20477;-70
2023/03/30 00:06:38;;;;;;;5.33;2.40;;;16.50;99.90;;;;;;5999358;23;20441;-71
2023/03/30 00:09:05;;;;;;;6.50;2.13;;;16.50;99.90;;;;;;6003729;23;20461;-71
2023/03/30 00:11:33;;;;;;;9.27;2.47;;;16.50;99.90;;;;;;5991527;23;20564;-71
2023/03/30 00:14:00;;;;;;;6.87;2.30;;;16.50;99.90;;;;;;5995816;23;20445;-72
2023/03/30 00:16:27;;;;;;;8.77;2.87;;;16.50;99.90;;;;;;5999045;23;20504;-71
2023/03/30 00:18:54;;;;;;;7.87;3.30;;;16.50;99.90;;;;;;5996969;23;20868;-71
2023/03/30 00:21:23;;;;;;;6.83;2.60;;;16.50;99.90;;;;;;6001312;23;20461;-70
2023/03/30 00:23:51;;;;;;;7.67;2.60;;;16.50;99.90;;;;;;6001398;23;20567;-70
2023/03/30 00:26:18;;;;;;;6.27;2.50;;;16.50;99.90;;;;;;5999888;23;20496;-70
2023/03/30 00:28:45;;;;;;;8.63;2.70;;;16.50;99.90;;;;;;5999968;23;20463;-70
2023/03/30 00:31:12;;;;;;;8.27;3.10;;;16.50;99.90;;;;;;6001559;23;20447;-70
2023/03/30 00:33:40;;;;;;;7.63;2.30;;;16.50;99.90;;;;;;5996346;23;20441;-70
2023/03/30 00:36:07;;;;;;;7.17;2.70;;;16.50;99.90;;;;;;5996119;23;20445;-71
2023/03/30 00:38:36;;;;;;;6.17;2.43;;;16.50;99.90;;;;;;5995527;23;20437;-71
2023/03/30 00:41:03;;;;;;;8.90;2.50;;;16.40;99.90;;;;;;5995348;23;21020;-71
2023/03/30 00:43:32;;;;;;;7.83;2.57;;;16.40;99.90;;;;;;5999712;23;20473;-71
2023/03/30 00:45:59;;;;;;;6.37;2.60;;;16.30;99.90;;;;;;6002230;23;20481;-71
2023/03/30 00:48:29;;;;;;;5.80;2.43;;;16.30;99.90;;;;;;6000705;23;20437;-71
2023/03/30 00:51:00;;;;;;;6.53;2.73;;;16.20;99.90;;;;;;6002532;23;20460;-70
2023/03/30 00:53:29;;;;;;;6.30;2.33;;;16.20;99.90;;;;;;5996361;23;20459;-70
2023/03/30 00:55:59;;;;;;;4.53;2.40;;;16.10;99.90;;;;;;6000602;23;20441;-70
2023/03/30 00:58:28;;;;;;;6.90;2.57;;;16.10;99.90;;;;;;6001383;23;20871;-71
2023/03/30 01:00:57;;;;;;;3.73;2.27;;;16.00;99.90;;;;;;6001705;23;20441;-71
2023/03/30 01:03:28;;;;;;;6.47;2.50;;;16.00;99.90;;;;;;5992808;23;20473;-71
2023/03/30 01:05:57;;;;;;;6.10;2.53;;;15.90;99.90;;;;;;6001649;23;20441;-71
2023/03/30 01:08:31;;;;;;;7.70;2.57;;;15.80;99.90;;;;;;6001931;23;20452;-71
2023/03/30 01:11:00;;;;;;;7.20;2.77;;;15.80;99.90;;;;;;6003467;23;20548;-71
2023/03/30 01:13:28;;;;;;;7.87;2.90;;;15.70;99.90;;;;;;5998867;23;20456;-70
2023/03/30 01:16:11;;;;;;;5.70;2.90;;;15.60;99.90;;;;;;5998960;23;20441;-70
2023/03/30 01:18:47;;;;;;;7.30;2.60;;;15.80;99.90;;;;;;5999972;23;20445;-70
2023/03/30 01:21:48;;;;;;;7.97;3.03;;;15.50;99.90;;;;;;5995717;23;20476;-70
2023/03/30 01:24:52;;;;;;;9.13;3.30;;;15.40;99.90;;;;;;6000201;23;20476;-70
2023/03/30 01:27:46;;;;;;;8.27;3.23;;;15.40;99.90;;;;;;5991008;23;20445;-71
2023/03/30 01:30:29;;;;;;;7.47;3.17;;;15.40;99.90;;;;;;6000605;23;20969;-70
2023/03/30 01:33:41;;;;;;;7.60;3.10;;;15.40;99.90;;;;;;5996654;23;20440;-71
2023/03/30 01:36:50;;;;;;;8.83;2.97;;;15.60;99.90;;;;;;6000419;23;20817;-70
2023/03/30 01:39:28;;;;;;;10.17;2.97;;;15.80;99.90;;;;;;5990862;23;20469;-70
2023/03/30 01:42:03;;;;;;;7.07;2.80;;;15.70;99.90;;;;;;5998388;23;20480;-70
2023/03/30 01:44:36;;;;;;;9.50;2.80;;;15.60;99.90;;;;;;6002009;23;20586;-70
2023/03/30 01:47:09;;;;;;;12.93;3.10;;;15.50;99.90;;;;;;5996911;23;20517;-70
2023/03/30 01:49:43;;;;;;;5.17;2.23;;;15.50;99.90;;;;;;5992930;23;20540;-70
2023/03/30 01:52:18;;;;;;;6.70;3.00;;;15.50;99.90;;;;;;5999755;23;20535;-70
2023/03/30 01:54:49;;;;;;;8.70;3.10;;;15.40;99.90;;;;;;5997353;23;20968;-70
2023/03/30 01:57:20;;;;;;;6.50;3.17;;;15.40;99.90;;;;;;5998922;23;20535;-70
2023/03/30 01:59:55;;;;;;;7.40;2.87;;;15.50;99.90;;;;;;6002761;23;20519;-71
2023/03/30 02:02:26;;;;;;;9.23;3.40;;;15.50;99.90;;;;;;5997382;23;20468;-71
2023/03/30 02:04:56;;;;;;;7.53;2.77;;;15.60;99.90;;;;;;6000465;23;20457;-70
2023/03/30 02:07:28;;;;;;;7.00;2.53;;;15.60;99.90;;;;;;6000821;23;20465;-70
2023/03/30 02:10:01;;;;;;;8.60;3.50;;;15.60;99.90;;;;;;5998093;23;20535;-70
2023/03/30 02:12:30;;;;;;;9.87;3.20;;;15.70;99.90;;;;;;5999449;23;20445;-70
2023/03/30 02:15:01;;;;;;;10.50;3.27;;;15.70;99.90;;;;;;5998915;23;20457;-70
2023/03/30 02:17:30;;;;;;;8.60;2.80;;;15.70;99.90;;;;;;6000590;23;20532;-70
2023/03/30 02:19:58;;;;;;;9.70;3.17;;;15.70;99.90;;;;;;5999323;23;20457;-70
2023/03/30 02:22:28;;;;;;;6.53;2.60;;;15.70;99.90;;;;;;6001188;23;20496;-71
2023/03/30 02:24:57;;;;;;;8.50;2.73;;;15.80;99.90;;;;;;5998816;23;20972;-70
2023/03/30 02:27:26;;;;;;;6.90;2.77;;;15.80;99.90;;;;;;5996589;23;20441;-70
2023/03/30 02:29:55;;;;;;;6.80;2.93;;;15.70;99.90;;;;;;6002028;23;20598;-70
2023/03/30 02:32:25;;;;;;;13.03;3.17;;;15.70;99.90;;;;;;6000443;23;20858;-71
2023/03/30 02:35:11;;;;;;;8.70;3.10;;;15.70;99.90;;;;;;6002265;23;20869;-70
2023/03/30 02:38:12;;;;;;;7.13;3.07;;;15.70;99.90;;;;;;5997631;23;20525;-70
2023/03/30 02:40:52;;;;;;;7.97;2.90;;;15.60;99.90;;;;;;5950684;23;20567;-70
2023/03/30 02:43:33;;;;;;;10.00;3.40;;;15.60;99.90;;;;;;5998702;23;20921;-70
2023/03/30 02:46:13;;;;;;;7.17;3.10;;;15.60;99.90;;;;;;5995983;23;21316;-70
2023/03/30 02:48:48;;;;;;;5.97;2.70;;;15.50;99.90;;;;;;6002390;23;20539;-70
2023/03/30 02:51:33;;;;;;;9.90;3.10;;;15.50;99.90;;;;;;6001097;23;20528;-70
2023/03/30 02:54:09;;;;;;;7.33;3.00;;;15.40;99.90;;;;;;6000409;23;20621;-71
2023/03/30 02:56:45;;;;;;;11.60;3.40;;;15.40;99.90;;;;;;5995653;23;21008;-71
2023/03/30 02:59:17;;;;;;;8.97;3.33;;;15.40;99.90;;;;;;5996312;23;20531;-70
2023/03/30 03:01:48;;;;;;;9.07;3.17;;;15.40;99.90;;;;;;5995912;23;20495;-71
2023/03/30 03:04:15;;;;;;;7.43;3.27;;;15.20;99.90;;;;;;5997334;23;20465;-71
2023/03/30 03:06:42;;;;;;;12.60;3.73;;;15.00;99.90;;;;;;6000722;23;20786;-71
2023/03/30 03:09:09;;;;;;;7.60;3.20;;;14.80;99.90;;;;;;5997993;23;20464;-71
2023/03/30 03:11:38;;;;;;;10.40;3.70;;;14.50;99.90;;;;;;5998556;23;20444;-71
2023/03/30 03:14:06;;;;;;;9.10;3.47;;;14.30;99.90;;;;;;6000105;23;20469;-71
2023/03/30 03:16:34;;;;;;;10.23;3.10;;;14.10;99.90;;;;;;5998680;23;20499;-71
2023/03/30 03:19:02;;;;;;;7.33;3.80;;;14.00;99.90;;;;;;5994942;23;20553;-71
2023/03/30 03:21:29;;;;;;;9.50;3.30;;;13.90;99.90;;;;;;6000484;23;20443;-71
2023/03/30 03:23:56;;;;;;;9.70;3.23;;;13.90;99.90;;;;;;6000751;23;20509;-71
2023/03/30 03:26:23;;;;;;;5.77;2.43;;;13.80;99.90;;;;;;5998959;23;20447;-71
2023/03/30 03:28:51;;;;;;;6.10;3.30;;;13.90;99.90;;;;;;6002661;23;20459;-72
2023/03/30 03:31:18;;;;;;;9.57;3.60;;;13.90;99.90;;;;;;6001532;23;20496;-71
2023/03/30 03:33:46;;;;;;;11.83;3.80;;;13.90;99.90;;;;;;6003981;23;20454;-71
2023/03/30 03:36:13;;;;;;;6.90;2.93;;;13.90;99.90;;;;;;5999629;23;20440;-71
2023/03/30 03:38:40;;;;;;;7.93;3.20;;;13.90;99.90;;;;;;5999906;23;20464;-71
2023/03/30 03:41:08;;;;;;;11.20;3.47;;;13.80;99.90;;;;;;5996858;23;20471;-71
2023/03/30 03:43:35;;;;;;;11.60;3.33;;;13.80;99.90;;;;;;5999813;23;20785;-71
2023/03/30 03:46:04;;;;;;;7.80;3.03;;;13.70;99.90;;;;;;6000400;23;20472;-71
2023/03/30 03:48:31;;;;;;;8.53;3.20;;;13.60;99.90;;;;;;5998082;23;20540;-71
2023/03/30 03:50:59;;;;;;;10.40;3.43;;;13.50;99.90;;;;;;6001844;23;20498;-71
2023/03/30 03:53:27;;;;;;;8.13;3.00;;;13.50;99.90;;;;;;6003342;23;20522;-71
2023/03/30 03:55:54;;;;;;;11.60;4.10;;;13.50;99.90;;;;;;6000201;23;20939;-71
2023/03/30 03:58:22;;;;;;;7.60;3.30;;;13.70;99.90;;;;;;5994257;23;20445;-71
2023/03/30 04:00:49;;;;;;;6.57;3.30;;;13.30;99.90;;;;;;6001222;23;20518;-71
2023/03/30 04:03:18;;;;;;;7.00;3.50;;;13.30;99.90;;;;;;6001611;23;20457;-71
2023/03/30 04:05:45;;;;;;;10.73;4.67;;;13.20;99.90;;;;;;5999485;23;20906;-71
2023/03/30 04:08:12;;;;;;;9.70;4.27;;;13.20;99.90;;;;;;5999726;23;20577;-71
2023/03/30 04:10:41;;;;;;;7.50;3.20;;;13.20;99.90;;;;;;5995110;23;20468;-71
2023/03/30 04:13:08;;;;;;;9.37;3.37;;;13.10;99.90;;;;;;5986505;23;20553;-72
2023/03/30 04:15:35;;;;;;;9.80;3.50;;;13.10;99.90;;;;;;5999280;23;20443;-73
2023/03/30 04:18:03;;;;;;;10.57;3.40;;;13.10;99.90;;;;;;5998466;23;20517;-73
2023/03/30 04:20:32;;;;;;;12.77;3.17;;;13.10;99.90;;;;;;6004252;23;20537;-73
2023/03/30 04:23:00;;;;;;;9.90;3.60;;;13.10;99.90;;;;;;6002297;23;20469;-73
2023/03/30 04:25:28;;;;;;;9.20;3.60;;;13.10;99.90;;;;;;6004280;23;20975;-73
2023/03/30 04:27:55;;;;;;;10.07;3.60;;;13.10;99.90;;;;;;6003217;23;20444;-72
2023/03/30 04:30:23;;;;;;;7.77;3.60;;;13.20;99.90;;;;;;5994496;23;20542;-72
2023/03/30 04:33:01;;;;;;;12.70;3.47;;;13.10;99.90;;;;;;6002878;23;20426;-72
2023/03/30 04:35:29;;;;;;;9.37;3.47;;;13.10;99.90;;;;;;5993117;23;20466;-72
2023/03/30 04:37:59;;;;;;;11.80;3.70;;;13.10;99.90;;;;;;5995691;23;20988;-69
2023/03/30 04:40:26;;;;;;;9.60;2.87;;;13.10;99.90;;;;;;6000612;23;20533;-69
2023/03/30 04:42:53;;;;;;;8.23;4.10;;;13.10;99.90;;;;;;5988989;23;20945;-70
2023/03/30 04:45:21;;;;;;;10.83;4.33;;;13.10;99.90;;;;;;5991292;23;20471;-72
2023/03/30 04:47:47;;;;;;;8.80;3.33;;;13.20;99.90;;;;;;6002511;23;20441;-88
2023/03/30 04:50:15;;;;;;;7.57;3.00;;;13.10;99.90;;;;;;5997316;23;20462;-86
2023/03/30 04:52:42;;;;;;;7.57;3.53;;;13.10;99.90;;;;;;5998979;23;20797;-72
2023/03/30 04:55:11;;;;;;;7.37;3.37;;;13.10;99.90;;;;;;5996272;23;20533;-72
2023/03/30 04:57:38;;;;;;;13.30;3.27;;;13.10;99.90;;;;;;6000234;23;20447;-72
2023/03/30 05:00:08;;;;;;;7.27;3.03;;;13.10;99.90;;;;;;6000497;23;20540;-72
2023/03/30 05:02:35;;;;;;;9.50;3.40;;;13.10;99.90;;;;;;5990999;23;21283;-72
2023/03/30 05:05:02;;;;;;;9.10;3.53;;;13.10;99.90;;;;;;6004657;23;20855;-72
2023/03/30 05:07:29;;;;;;;6.73;3.50;;;13.10;99.90;;;;;;6004359;23;20446;-72
2023/03/30 05:09:56;;;;;;;8.40;3.43;;;13.10;99.90;;;;;;5999147;23;20457;-71
2023/03/30 05:12:25;;;;;;;6.53;3.23;;;13.20;99.90;;;;;;5994009;23;20521;-87
2023/03/30 05:14:52;;;;;;;9.30;4.00;;;13.10;99.90;;;;;;5996052;23;20440;-71
2023/03/30 05:17:19;;;;;;;14.17;3.90;;;13.20;99.90;;;;;;5997518;23;20464;-71
2023/03/30 05:19:46;;;;;;;11.90;3.50;;;13.20;99.90;;;;;;6000440;23;20504;-71
2023/03/30 05:22:15;;;;;;;9.77;3.70;;;13.20;99.90;;;;;;6002811;23;21042;-72
2023/03/30 05:24:42;;;;;;;8.83;3.10;;;13.20;99.90;;;;;;6003480;23;20509;-72
2023/03/30 05:27:09;;;;;;;9.43;3.90;;;13.10;99.90;;;;;;6003820;23;20931;-72
2023/03/30 05:29:38;;;;;;;9.93;4.30;;;13.20;99.90;;;;;;6002244;23;20581;-72
2023/03/30 05:32:05;;;;;;;9.73;4.30;;;13.20;99.90;;;;;;6003545;23;20440;-72
2023/03/30 05:34:32;;;;;;;13.67;5.37;;;13.20;99.90;;;;;;6001875;23;20963;-72
2023/03/30 05:37:00;;;;;;;10.43;4.33;;;13.20;99.90;;;;;;5998443;23;20431;-72
2023/03/30 05:39:27;;;;;;;9.57;3.63;;;13.20;99.90;;;;;;6003781;23;20469;-72
2023/03/30 05:41:54;;;;;;;8.50;3.83;;;13.20;99.90;;;;;;6004502;23;20436;-72
2023/03/30 05:44:21;;;;;;;11.23;5.10;;;13.20;99.90;;;;;;6000382;23;20472;-71
2023/03/30 05:46:49;;;;;;;9.43;3.60;;;13.20;99.90;;;;;;6003910;23;20862;-71
2023/03/30 05:49:16;;;;;;;10.47;3.80;;;13.20;99.90;;;;;;6002974;23;20455;-72
2023/03/30 05:51:43;;;;;;;11.80;4.13;;;13.20;99.90;;;;;;6001919;23;21136;-72
2023/03/30 05:54:11;;;;;;;10.97;4.73;;;13.20;99.90;;;;;;6003241;23;20740;-71
2023/03/30 05:56:39;;;;;;;10.67;4.20;;;13.20;99.90;;;;;;5996798;23;20520;-71
2023/03/30 05:59:06;;;;;;;11.40;4.47;;;13.20;99.90;;;;;;5991493;23;21097;-71
2023/03/30 06:01:33;;;;;;;12.43;5.50;;;13.20;99.90;;;;;;6001164;23;20435;-71
2023/03/30 06:04:02;;;;;;;11.80;4.43;;;13.20;99.90;;;;;;6001193;23;20439;-71
2023/03/30 06:06:29;;;;;;;9.83;4.10;;;13.20;99.90;;;;;;6002905;23;20473;-71
2023/03/30 06:08:56;;;;;;;12.97;4.50;;;13.20;99.90;;;;;;5999803;23;20461;-71
2023/03/30 06:11:23;;;;;;;12.43;4.20;;;13.20;99.90;;;;;;6001122;23;20490;-72
2023/03/30 06:13:50;;;;;;;11.07;4.33;;;13.20;99.90;;;;;;5995266;23;20493;-71
2023/03/30 06:16:17;;;;;;;7.97;3.77;;;13.20;99.90;;;;;;5995541;23;20443;-71
2023/03/30 06:18:45;;;;;;;11.30;4.10;;;13.20;99.90;;;;;;5997574;23;20462;-72
2023/03/30 06:21:13;;;;;;;9.97;3.80;;;13.20;99.90;;;;;;5998231;23;20942;-71
2023/03/30 06:23:41;;;;;;;8.10;3.80;;;13.20;99.90;;;;;;5996592;23;20441;-72
2023/03/30 06:26:08;;;;;;;7.80;3.70;;;13.20;99.90;;;;;;6000508;23;20819;-72
2023/03/30 06:28:36;;;;;;;10.97;4.00;;;13.30;99.90;;;;;;6002121;23;20625;-71
2023/03/30 06:31:08;;;;;;;13.07;3.70;;;13.20;99.90;;;;;;6002568;23;20426;-72
2023/03/30 06:33:36;;;;;;;11.33;4.30;;;13.20;99.90;;;;;;6002846;23;20435;-72
2023/03/30 06:36:04;;;;;;;11.93;4.43;;;13.20;99.90;;;;;;5999756;23;20844;-72
2023/03/30 06:38:32;;;;;;;10.17;4.00;;;13.20;99.90;;;;;;6000886;23;20458;-72
2023/03/30 06:41:05;;;;;;;11.60;3.90;;;13.20;99.90;;;;;;5998446;23;20429;-71
2023/03/30 06:43:32;;;;;;;9.47;3.73;;;13.20;99.90;;;;;;5998260;23;20962;-71
2023/03/30 06:46:00;;;;;;;11.90;3.40;;;13.20;99.90;;;;;;5998830;23;20458;-71
2023/03/30 06:48:27;;;;;;;8.80;3.67;;;13.50;99.90;;;;;;6000995;23;20517;-71
2023/03/30 06:50:55;;;;;;;8.70;3.60;;;13.20;99.90;;;;;;5998394;23;20815;-71
2023/03/30 06:53:23;;;;;;;12.30;3.87;;;13.30;99.90;;;;;;5988462;23;20811;-72
2023/03/30 06:55:55;;;;;;;7.03;3.23;;;13.30;99.90;;;;;;5997368;23;20455;-71
2023/03/30 06:58:23;;;;;;;7.77;3.70;;;13.40;99.90;;;;;;5994064;23;20471;-73
2023/03/30 07:00:51;;;;;;;8.90;4.30;;;13.40;99.90;;;;;;5998275;23;20532;-72
2023/03/30 07:03:19;;;;;;;9.00;3.90;;;13.50;99.90;;;;;;6003023;23;20841;-72
2023/03/30 07:05:47;;;;;;;10.10;4.20;;;13.50;99.90;;;;;;6003533;23;21047;-72
2023/03/30 07:08:15;;;;;;;9.67;4.20;;;13.50;99.90;;;;;;5998933;23;20474;-72
2023/03/30 07:10:42;;;;;;;8.50;3.60;;;13.60;99.90;;;;;;6002302;23;20479;-71
2023/03/30 07:13:10;;;;;;;12.43;4.20;;;13.60;99.90;;;;;;5998761;23;20443;-72
2023/03/30 07:15:37;;;;;;;9.60;4.20;;;13.60;99.90;;;;;;5997897;23;20439;-71
2023/03/30 07:18:04;;;;;;;8.00;3.97;;;13.50;99.90;;;;;;5997899;23;21125;-71
2023/03/30 07:20:32;;;;;;;8.87;4.13;;;13.50;99.90;;;;;;6002162;23;20519;-71
2023/03/30 07:22:59;;;;;;;8.87;4.00;;;13.50;99.90;;;;;;6003274;23;20494;-71
2023/03/30 07:25:25;;;;;;;12.10;4.43;;;13.40;99.90;;;;;;6005402;23;20545;-71
2023/03/30 07:27:53;;;;;;;8.27;4.50;;;13.30;99.90;;;;;;6002829;23;20529;-71
2023/03/30 07:30:21;;;;;;;7.70;4.20;;;13.30;99.90;;;;;;6000522;23;20505;-71
2023/03/30 07:32:49;;;;;;;12.90;5.03;;;13.20;99.90;;;;;;6002319;23;20435;-71
2023/03/30 07:35:16;;;;;;;8.17;4.70;;;13.20;99.90;;;;;;5992585;23;20449;-71
2023/03/30 07:37:43;;;;;;;10.30;5.13;;;13.10;99.90;;;;;;6000388;23;20843;-71
2023/03/30 07:40:11;;;;;;;12.70;5.07;;;13.00;99.90;;;;;;6003072;23;21000;-71
2023/03/30 07:42:39;;;;;;;12.80;5.70;;;13.00;99.90;;;;;;5997462;23;20438;-71
2023/03/30 07:45:07;;;;;;;11.73;4.60;;;12.90;99.90;;;;;;5998157;23;20528;-71
2023/03/30 07:47:36;;;;;;;11.60;4.73;;;12.90;99.90;;;;;;6001830;23;20446;-70
2023/03/30 07:50:05;;;;;;;8.45;5.32;;;13.00;99.90;;;;;;6002868;23;20421;-70
2023/03/30 07:52:32;;;;;;;9.85;5.20;;;12.80;99.90;;;;;;5999535;23;20277;-71
2023/03/30 07:55:00;;;;;;;11.13;5.23;;;12.70;99.90;;;;;;5996798;23;20266;-71
2023/03/30 07:57:27;;;;;;;9.90;5.03;;;12.70;99.90;;;;;;5994463;23;20521;-71
2023/03/30 07:59:54;;;;;;;12.07;5.10;;;12.70;99.90;;;;;;5994657;23;20487;-71
2023/03/30 08:02:21;;;;;;;10.00;4.50;;;12.70;99.90;;;;;;6004662;23;20954;-71
2023/03/30 08:04:51;;;;;;;11.77;5.55;;;12.70;99.90;;;;;;6003485;23;20441;-71
2023/03/30 08:07:18;;;;;;;5.43;3.50;;;12.70;99.90;;;;;;5998829;23;20213;-72
2023/03/30 08:09:46;;;;;;;7.30;4.60;;;12.70;99.90;;;;;;5995416;23;20967;-71
2023/03/30 08:12:13;;;;;;;6.80;4.37;;;12.90;99.90;;;;;;5994399;23;20441;-71
2023/03/30 08:14:40;;;;;;;5.25;4.20;;;12.70;99.90;;;;;;6004547;23;20426;-72
2023/03/30 08:17:07;;;;;;;9.70;4.88;;;12.80;99.90;;;;;;5996411;23;20200;-71
2023/03/30 08:19:34;;;;;;;9.50;4.90;;;12.70;99.90;;;;;;5993962;23;20206;-71
2023/03/30 08:22:03;;;;;;;7.88;5.00;;;12.70;99.90;;;;;;6003302;23;20484;-71
2023/03/30 08:24:30;;;;;;;9.60;5.13;;;12.70;99.90;;;;;;5991450;23;20591;-71
2023/03/30 08:26:57;;;;;;;13.07;5.90;;;12.70;99.90;;;;;;6000314;23;20237;-71
2023/03/30 08:29:24;;;;;;;8.13;4.87;;;12.70;99.90;;;;;;6003002;23;20463;-71
2023/03/30 08:31:51;;;;;;;7.40;4.47;;;12.70;99.90;;;;;;6004052;23;20457;-71
2023/03/30 08:34:19;;;;;;;7.57;4.50;;;12.70;99.90;;;;;;6003650;23;20705;-71
2023/03/30 08:36:46;;;;;;;8.13;4.07;;;12.70;99.90;;;;;;6002703;23;20934;-70
2023/03/30 08:39:15;;;;;;;4.63;3.60;;;12.70;99.90;;;;;;5996292;23;20458;-71
2023/03/30 08:42:12;;;;;;;4.10;3.10;;;12.70;99.90;;;;;;6000590;23;20182;-70
2023/03/30 08:44:42;;;;;;;5.20;3.53;;;12.70;99.90;;;;;;6004367;23;20480;-71
2023/03/30 08:47:12;;;;;;;6.50;3.60;;;12.70;99.90;;;;;;6004428;23;20460;-72
2023/03/30 08:49:44;;;;;;;6.38;3.42;;;12.70;99.90;;;;;;6004485;23;20219;-71
2023/03/30 08:52:21;;;;;;;3.83;3.43;;;12.80;99.90;;;;;;6004773;23;20179;-71
2023/03/30 08:54:50;;;;;;;6.87;2.97;;;12.60;99.90;;;;;;6003827;23;20441;-71
2023/03/30 08:57:31;;;;;;;5.70;3.23;;;12.60;99.90;;;;;;6004720;23;20440;-71
2023/03/30 09:00:11;;;;;;;8.27;3.50;;;12.60;99.90;;;;;;5993559;23;20504;-70
2023/03/30 09:02:42;;;;;;;4.47;3.40;;;12.50;99.90;;;;;;6000384;23;20815;-70
2023/03/30 09:05:17;;;;;;;6.00;3.67;;;12.40;99.90;;;;;;5994122;23;20193;-70
2023/03/30 09:07:52;;;;;;;4.90;3.60;;;12.40;99.90;;;;;;5990234;23;20221;-71
2023/03/30 09:10:25;;;;;;;8.77;4.00;;;12.30;99.90;;;;;;5979292;23;20418;-71
2023/03/30 09:12:56;;;;;;;11.68;5.00;;;12.20;99.90;;;;;;5990825;23;20671;-71
2023/03/30 09:15:28;;;;;;;7.13;4.45;;;12.30;99.90;;;;;;5998416;23;20256;-71
2023/03/30 09:18:01;;;;;;;6.85;5.00;;;12.20;99.90;;;;;;6000660;23;20214;-71
2023/03/30 09:20:30;;;;;;;7.07;4.68;;;12.30;99.90;;;;;;6003795;23;20183;-71
2023/03/30 09:23:00;;;;;;;7.82;4.95;;;12.30;99.90;;;;;;5996449;23;20194;-72
2023/03/30 09:25:35;;;;;;;6.60;4.80;;;12.30;99.90;;;;;;5996681;23;20190;-71
2023/03/30 09:28:11;;;;;;;8.93;5.60;;;12.30;99.90;;;;;;6001526;23;20754;-71
2023/03/30 09:30:41;;;;;;;7.37;5.07;;;12.30;99.90;;;;;;5995712;23;20193;-71
2023/03/30 09:33:18;;;;;;;7.90;5.13;;;12.30;99.90;;;;;;5997160;23;20826;-71
2023/03/30 09:35:58;;;;;;;8.18;4.95;;;12.40;99.90;;;;;;6003029;23;21021;-71
2023/03/30 09:38:25;;;;;;;8.82;5.55;;;12.40;99.90;;;;;;6002395;23;20632;-71
2023/03/30 09:41:06;;;;;;;8.33;5.43;;;12.40;99.90;;;;;;6004862;23;20195;-71
2023/03/30 09:43:36;;;;;;;10.87;5.93;;;12.50;99.90;;;;;;6003285;23;20432;-71
2023/03/30 09:46:06;;;;;;;8.43;5.57;;;12.60;99.90;;;;;;6004365;23;20450;-71
2023/03/30 09:48:40;;;;;;;5.97;4.70;;;12.60;99.90;;;;;;6002966;23;20481;-70
2023/03/30 09:51:22;;;;;;;8.90;4.87;;;12.70;99.90;;;;;;6004068;23;20422;-71
2023/03/30 09:53:52;;;;;;;6.27;5.03;;;12.70;99.90;;;;;;5991875;23;20521;-70
2023/03/30 09:56:30;;;;;;;6.88;3.28;;;12.70;99.90;;;;;;6003644;23;20953;-70
2023/03/30 09:58:57;;;;;;;5.23;3.17;;;12.80;99.90;;;;;;6003215;23;20210;-70
2023/03/30 10:01:36;;;;;;;6.00;2.80;;;12.80;99.90;;;;;;5990663;23;20525;-71
2023/03/30 10:04:08;;;;;;;3.17;2.30;;;12.80;99.90;;;;;;6000778;23;20217;-71
2023/03/30 10:06:38;;;;;;;3.33;2.50;;;12.90;99.90;;;;;;5999977;23;20466;-71
2023/03/30 10:09:11;;;;;;;5.30;2.80;;;12.90;99.90;;;;;;5998179;23;20488;-72
2023/03/30 10:11:42;;;;;;;3.77;2.10;;;13.00;99.90;;;;;;5985669;23;20469;-79
2023/03/30 10:14:29;;;;;;;5.20;2.73;;;13.00;99.90;;;;;;6002890;23;20526;-70
2023/03/30 10:16:57;;;;;;;3.00;2.30;;;13.20;99.90;;;;;;5991024;23;20850;-70
2023/03/30 10:19:24;;;;;;;3.47;2.50;;;13.20;99.90;;;;;;5996262;23;20459;-71
2023/03/30 10:21:54;;;;;;;3.20;2.50;;;13.20;99.90;;;;;;6000166;23;20441;-70
2023/03/30 10:24:23;;;;;;;3.07;2.53;;;13.20;99.90;;;;;;5999072;23;20436;-70
2023/03/30 10:26:55;;;;;;;3.83;3.13;;;13.20;99.90;;;;;;6000426;23;20481;-69
2023/03/30 10:29:25;;;;;;;3.27;2.50;;;13.20;99.90;;;;;;6001706;23;20485;-70
2023/03/30 10:31:58;;;;;;;3.77;2.90;;;13.00;99.90;;;;;;5997433;23;20447;-70
2023/03/30 10:34:36;;;;;;;3.80;2.50;;;12.80;99.90;;;;;;5996143;23;20441;-71
2023/03/30 10:37:09;;;;;;;3.90;2.80;;;12.80;99.90;;;;;;5999787;23;20276;-71
2023/03/30 10:39:39;;;;;;;4.50;3.58;;;12.80;99.90;;;;;;6002300;23;20520;-71
2023/03/30 10:42:13;;;;;;;3.40;3.10;;;12.90;99.90;;;;;;6002706;23;20191;-71
2023/03/30 10:44:44;;;;;;;3.53;2.60;;;12.80;99.90;;;;;;6003010;23;20453;-71
2023/03/30 10:47:28;;;;;;;3.60;2.90;;;13.10;99.90;;;;;;6002545;23;20868;-71
2023/03/30 10:50:07;;;;;;;5.43;3.40;;;13.00;99.90;;;;;;6002329;23;20485;-71
2023/03/30 10:52:43;;;;;;;3.73;2.67;;;13.20;99.90;;;;;;5999487;23;20466;-71
2023/03/30 10:55:17;;;;;;;3.43;2.73;;;13.60;99.90;;;;;;6000269;23;20438;-72
2023/03/30 10:57:55;;;;;;;5.10;2.87;;;13.40;99.90;;;;;;6000530;23;20473;-72
2023/03/30 11:00:45;;;;;;;2.70;2.50;;;13.50;99.90;;;;;;6000480;23;20446;-71
2023/03/30 11:03:18;;;;;;;2.97;2.67;;;13.50;99.90;;;;;;5989379;23;20441;-71
2023/03/30 11:05:49;;;;;;;3.73;2.67;;;13.60;99.90;;;;;;5998467;23;20439;-71
2023/03/30 11:08:20;;;;;;;3.23;2.27;;;13.70;99.90;;;;;;6004424;23;20547;-71
2023/03/30 11:10:49;;;;;;;5.13;2.43;;;13.90;99.90;;;;;;5997045;23;20440;-71
2023/03/30 11:13:21;;;;;;;3.30;2.30;;;14.20;99.90;;;;;;6000205;23;20445;-71
2023/03/30 11:15:52;;;;;;;4.10;2.50;;;14.60;99.90;;;;;;6003823;23;20432;-71
2023/03/30 11:18:23;;;;;;;3.57;2.90;;;15.00;99.90;;;;;;6002222;23;20500;-71
2023/03/30 11:20:56;;;;;;;4.43;2.90;;;15.50;99.90;;;;;;5997595;23;20528;-70
2023/03/30 11:23:28;;;;;;;3.50;2.70;;;15.80;99.90;;;;;;5998265;23;20487;-71
2023/03/30 11:26:01;;;;;;;2.97;2.60;;;15.80;99.90;;;;;;5997436;23;20449;-71
2023/03/30 11:28:58;;;;;;;3.43;2.30;;;15.80;99.90;;;;;;6002365;23;20477;-71
2023/03/30 11:31:39;;;;;;;3.83;3.00;;;15.80;99.90;;;;;;5984201;23;20488;-71
2023/03/30 11:34:16;;;;;;;3.57;2.47;;;15.80;99.90;;;;;;6004158;23;20433;-71
2023/03/30 11:36:50;;;;;;;2.60;2.40;;;15.80;99.90;;;;;;5993590;23;20971;-71
2023/03/30 11:39:21;;;;;;;3.23;2.30;;;15.70;99.90;;;;;;5993864;23;20428;-70
2023/03/30 11:41:52;;;;;;;4.13;2.40;;;15.60;99.90;;;;;;5995503;23;20950;-70
2023/03/30 11:44:21;;;;;;;3.17;2.30;;;15.60;99.90;;;;;;5996477;23;20953;-70
2023/03/30 11:47:00;;;;;;;4.53;2.70;;;15.60;99.90;;;;;;6003740;23;20457;-70
2023/03/30 11:49:40;;;;;;;2.60;2.30;;;15.60;99.90;;;;;;6003561;23;20440;-70
2023/03/30 11:52:20;;;;;;;3.23;2.40;;;15.50;99.90;;;;;;5999614;23;20442;-70
2023/03/30 11:55:16;;;;;;;2.63;2.40;;;15.40;99.90;;;;;;6004571;23;20464;-70
2023/03/30 11:57:47;;;;;;;3.23;2.63;;;15.40;99.90;;;;;;6001684;23;20469;-71
2023/03/30 12:00:39;;;;;;;4.80;2.70;;;15.70;99.90;;;;;;6003900;23;20548;-70
2023/03/30 12:03:16;;;;;;;4.17;2.53;;;15.90;99.90;;;;;;6001047;23;20441;-70
2023/03/30 12:05:47;;;;;;;3.53;2.70;;;16.10;99.90;;;;;;6004875;23;20509;-70
2023/03/30 12:08:31;;;;;;;6.30;2.30;;;16.30;99.90;;;;;;6003867;23;20476;-70
2023/03/30 12:11:06;;;;;;;4.07;2.60;;;16.20;99.90;;;;;;6002829;23;20464;-70
2023/03/30 12:13:33;;;;;;;4.23;2.77;;;16.00;99.90;;;;;;5999848;23;20527;-70
2023/03/30 12:16:07;;;;;;;3.83;2.67;;;15.90;99.90;;;;;;6001979;23;20529;-71
2023/03/30 12:18:41;;;;;;;4.40;2.37;;;15.90;99.90;;;;;;6003531;23;20465;-71
2023/03/30 12:21:25;;;;;;;4.53;2.50;;;15.90;99.90;;;;;;5995770;23;20468;-71
2023/03/30 12:24:00;;;;;;;3.40;2.57;;;16.10;99.90;;;;;;5998235;23;20477;-70
2023/03/30 12:26:29;;;;;;;4.87;2.67;;;16.10;99.90;;;;;;6001669;23;20802;-71
2023/03/30 12:29:07;;;;;;;6.33;2.77;;;16.20;99.90;;;;;;6002123;23;20994;-71
2023/03/30 12:32:05;;;;;;;2.87;2.43;;;16.70;99.90;;;;;;6001887;23;20789;-72
2023/03/30 12:34:35;;;;;;;2.90;2.40;;;17.10;99.90;;;;;;6002787;23;20441;-72
2023/03/30 12:37:08;;;;;;;3.10;2.40;;;17.30;99.90;;;;;;6004153;23;20473;-72
2023/03/30 12:39:43;;;;;;;4.93;2.70;;;17.60;99.90;;;;;;5997890;23;20441;-70
2023/03/30 12:42:25;;;;;;;3.57;2.53;;;18.00;99.90;;;;;;5998994;23;20492;-72
2023/03/30 12:45:15;;;;;;;3.50;2.60;;;18.20;99.90;;;;;;6003378;23;20425;-71
2023/03/30 12:47:53;;;;;;;7.20;2.57;;;18.20;99.90;;;;;;5997093;23;20487;-71
2023/03/30 12:50:31;;;;;;;3.03;2.33;;;17.90;99.90;;;;;;5998283;23;20848;-71
2023/03/30 12:53:21;;;;;;;5.00;2.43;;;17.40;99.90;;;;;;6000942;23;20437;-70
2023/03/30 12:55:53;;;;;;;3.07;2.43;;;17.20;99.90;;;;;;6001978;23;20480;-71
2023/03/30 12:58:43;;;;;;;5.23;2.67;;;17.30;99.90;;;;;;5997211;23;20509;-71
2023/03/30 13:01:37;;;;;;;3.37;2.73;;;17.20;99.90;;;;;;5992945;23;20500;-71
2023/03/30 13:04:10;;;;;;;2.97;2.67;;;17.00;99.90;;;;;;5978624;23;20490;-71
2023/03/30 13:06:42;;;;;;;3.70;2.50;;;16.80;99.90;;;;;;5996688;23;20445;-71
2023/03/30 13:09:31;;;;;;;5.50;3.30;;;16.70;99.90;;;;;;5997248;23;20450;-71